sensor_id;sensor_type;location;lat;lon;timestamp;P1;durP1;ratioP1;P2;durP2;ratioP2
15500;SDS011;7852;52.228;5.990;2023-08-30T00:00:57;21.9;;;20.5;;
15500;SDS011;7852;52.228;5.990;2023-08-30T00:01:57;21.3;;;19.6;;
15500;SDS011;7852;52.228;5.990;2023-08-30T00:02:57;21.4;;;19.9;;
15500;SDS011;7852;52.228;5.990;2023-08-30T00:03:57;21;;;19.5;;
15500;SDS011;7852;52.228;5.990;2023-08-30T00:04:58;18.1;;;16.6;;
15500;SDS011;7852;52.228;5.990;2023-08-30T00:06:01;17.2;;;15.8;;
15500;SDS011;7852;52.228;5.990;2023-08-30T00:06:57;16.6;;;15.3;;
15500;SDS011;7852;52.228;5.990;2023-08-30T00:07:57;18;;;16.4;;
15500;SDS011;7852;52.228;5.990;2023-08-30T00:08:57;17.8;;;16.5;;
15500;SDS011;7852;52.228;5.990;2023-08-30T00:09:58;17.3;;;16;;
15500;SDS011;7852;52.228;5.990;2023-08-30T00:10:57;16.6;;;15.4;;
15500;SDS011;7852;52.228;5.990;2023-08-30T00:11:57;17.3;;;16;;
15500;SDS011;7852;52.228;5.990;2023-08-30T00:12:57;17.8;;;16.5;;
15500;SDS011;7852;52.228;5.990;2023-08-30T00:14:02;18.6;;;16.9;;
15500;SDS011;7852;52.228;5.990;2023-08-30T00:14:57;18.1;;;16.8;;
15500;SDS011;7852;52.228;5.990;2023-08-30T00:15:57;17.6;;;16.3;;
15500;SDS011;7852;52.228;5.990;2023-08-30T00:16:57;19.3;;;17.7;;
15500;SDS011;7852;52.228;5.990;2023-08-30T00:17:57;15.7;;;14.4;;
15500;SDS011;7852;52.228;5.990;2023-08-30T00:18:57;19.5;;;18.1;;
15500;SDS011;7852;52.228;5.990;2023-08-30T00:19:58;15.8;;;14.4;;
15500;SDS011;7852;52.228;5.990;2023-08-30T00:20:57;13.1;;;12.1;;
15500;SDS011;7852;52.228;5.990;2023-08-30T00:21:57;13.3;;;12.1;;
15500;SDS011;7852;52.228;5.990;2023-08-30T00:22:57;13.2;;;12.1;;
15500;SDS011;7852;52.228;5.990;2023-08-30T00:23:57;13.1;;;12.1;;
15500;SDS011;7852;52.228;5.990;2023-08-30T00:24:57;14.4;;;13.2;;
15500;SDS011;7852;52.228;5.990;2023-08-30T00:25:57;14.3;;;13.1;;
15500;SDS011;7852;52.228;5.990;2023-08-30T00:26:57;12.9;;;11.8;;
15500;SDS011;7852;52.228;5.990;2023-08-30T00:27:57;12.9;;;11.7;;
15500;SDS011;7852;52.228;5.990;2023-08-30T00:28:57;12.7;;;11.5;;
15500;SDS011;7852;52.228;5.990;2023-08-30T00:29:57;13.3;;;12;;
15500;SDS011;7852;52.228;5.990;2023-08-30T00:30:57;13.6;;;12.4;;
15500;SDS011;7852;52.228;5.990;2023-08-30T00:31:57;14.3;;;13;;
15500;SDS011;7852;52.228;5.990;2023-08-30T00:32:57;14.5;;;13.2;;
15500;SDS011;7852;52.228;5.990;2023-08-30T00:33:57;14.8;;;13.5;;
15500;SDS011;7852;52.228;5.990;2023-08-30T00:34:57;13.6;;;12.4;;
15500;SDS011;7852;52.228;5.990;2023-08-30T00:35:57;13.1;;;12;;
15500;SDS011;7852;52.228;5.990;2023-08-30T00:36:57;14.6;;;13.3;;
15500;SDS011;7852;52.228;5.990;2023-08-30T00:37:57;12.9;;;11.7;;
15500;SDS011;7852;52.228;5.990;2023-08-30T00:38:57;12.9;;;11.9;;
15500;SDS011;7852;52.228;5.990;2023-08-30T00:39:57;13.3;;;12.2;;
15500;SDS011;7852;52.228;5.990;2023-08-30T00:40:57;13;;;11.9;;
15500;SDS011;7852;52.228;5.990;2023-08-30T00:41:57;15;;;13.6;;
15500;SDS011;7852;52.228;5.990;2023-08-30T00:42:57;13.2;;;11.9;;
15500;SDS011;7852;52.228;5.990;2023-08-30T00:43:57;13.2;;;12.1;;
15500;SDS011;7852;52.228;5.990;2023-08-30T00:44:57;14;;;12.8;;
15500;SDS011;7852;52.228;5.990;2023-08-30T00:45:57;13.1;;;11.9;;
15500;SDS011;7852;52.228;5.990;2023-08-30T00:46:57;12.4;;;11.3;;
15500;SDS011;7852;52.228;5.990;2023-08-30T00:47:57;12.5;;;11.4;;
15500;SDS011;7852;52.228;5.990;2023-08-30T00:48:57;12.3;;;11.4;;
15500;SDS011;7852;52.228;5.990;2023-08-30T00:49:57;13.9;;;12.9;;
15500;SDS011;7852;52.228;5.990;2023-08-30T00:50:57;12.3;;;11.3;;
15500;SDS011;7852;52.228;5.990;2023-08-30T00:51:57;12.1;;;11.1;;
15500;SDS011;7852;52.228;5.990;2023-08-30T00:52:57;13.2;;;11.9;;
15500;SDS011;7852;52.228;5.990;2023-08-30T00:53:57;12.1;;;11;;
15500;SDS011;7852;52.228;5.990;2023-08-30T00:54:58;11.7;;;10.7;;
15500;SDS011;7852;52.228;5.990;2023-08-30T00:55:57;11.2;;;10.2;;
15500;SDS011;7852;52.228;5.990;2023-08-30T00:56:57;12.3;;;11.4;;
15500;SDS011;7852;52.228;5.990;2023-08-30T00:57:57;13.4;;;12.3;;
15500;SDS011;7852;52.228;5.990;2023-08-30T00:58:57;12;;;11.1;;
15500;SDS011;7852;52.228;5.990;2023-08-30T00:59:57;12.4;;;11.3;;
15500;SDS011;7852;52.228;5.990;2023-08-30T01:00:57;12.6;;;11.7;;
15500;SDS011;7852;52.228;5.990;2023-08-30T01:01:57;13.8;;;12.8;;
15500;SDS011;7852;52.228;5.990;2023-08-30T01:02:57;12.9;;;11.9;;
15500;SDS011;7852;52.228;5.990;2023-08-30T01:03:57;12.6;;;11.5;;
15500;SDS011;7852;52.228;5.990;2023-08-30T01:04:57;11.8;;;10.8;;
15500;SDS011;7852;52.228;5.990;2023-08-30T01:05:57;11.8;;;10.8;;
15500;SDS011;7852;52.228;5.990;2023-08-30T01:06:57;12.6;;;11.5;;
15500;SDS011;7852;52.228;5.990;2023-08-30T01:07:57;12.9;;;11.7;;
15500;SDS011;7852;52.228;5.990;2023-08-30T01:08:57;12;;;11;;
15500;SDS011;7852;52.228;5.990;2023-08-30T01:09:57;11.5;;;10.6;;
15500;SDS011;7852;52.228;5.990;2023-08-30T01:10:59;11.5;;;10.6;;
15500;SDS011;7852;52.228;5.990;2023-08-30T01:11:59;10.6;;;9.7;;
15500;SDS011;7852;52.228;5.990;2023-08-30T01:12:58;11.6;;;10.7;;
15500;SDS011;7852;52.228;5.990;2023-08-30T01:13:58;12.1;;;11;;
15500;SDS011;7852;52.228;5.990;2023-08-30T01:14:57;11.2;;;10.2;;
15500;SDS011;7852;52.228;5.990;2023-08-30T01:15:57;11.4;;;10.4;;
15500;SDS011;7852;52.228;5.990;2023-08-30T01:16:57;12.2;;;11.2;;
15500;SDS011;7852;52.228;5.990;2023-08-30T01:17:57;11.1;;;10.2;;
15500;SDS011;7852;52.228;5.990;2023-08-30T01:18:57;12;;;11;;
15500;SDS011;7852;52.228;5.990;2023-08-30T01:19:58;11.5;;;10.6;;
15500;SDS011;7852;52.228;5.990;2023-08-30T01:20:57;11.5;;;10.4;;
15500;SDS011;7852;52.228;5.990;2023-08-30T01:21:58;11.4;;;10.5;;
15500;SDS011;7852;52.228;5.990;2023-08-30T01:22:58;11.7;;;10.7;;
15500;SDS011;7852;52.228;5.990;2023-08-30T01:23:58;10.6;;;9.8;;
15500;SDS011;7852;52.228;5.990;2023-08-30T01:25:00;11;;;10.1;;
15500;SDS011;7852;52.228;5.990;2023-08-30T01:26:02;10.6;;;9.6;;
15500;SDS011;7852;52.228;5.990;2023-08-30T01:27:05;11.1;;;10.2;;
15500;SDS011;7852;52.228;5.990;2023-08-30T01:27:57;11.2;;;10.3;;
15500;SDS011;7852;52.228;5.990;2023-08-30T01:28:57;10.6;;;9.7;;
15500;SDS011;7852;52.228;5.990;2023-08-30T01:29:57;10.7;;;9.9;;
15500;SDS011;7852;52.228;5.990;2023-08-30T01:30:57;11.2;;;10.4;;
15500;SDS011;7852;52.228;5.990;2023-08-30T01:31:57;11.7;;;10.7;;
15500;SDS011;7852;52.228;5.990;2023-08-30T01:32:57;10.9;;;10.1;;
15500;SDS011;7852;52.228;5.990;2023-08-30T01:33:57;11.9;;;10.9;;
15500;SDS011;7852;52.228;5.990;2023-08-30T01:34:57;12.2;;;11.3;;
15500;SDS011;7852;52.228;5.990;2023-08-30T01:36:00;11.1;;;10.3;;
15500;SDS011;7852;52.228;5.990;2023-08-30T01:36:57;11.9;;;10.9;;
15500;SDS011;7852;52.228;5.990;2023-08-30T01:37:57;11.3;;;10.3;;
15500;SDS011;7852;52.228;5.990;2023-08-30T01:38:57;12.3;;;11.3;;
15500;SDS011;7852;52.228;5.990;2023-08-30T01:39:57;11.9;;;10.9;;
15500;SDS011;7852;52.228;5.990;2023-08-30T01:40:58;12.4;;;11.5;;
15500;SDS011;7852;52.228;5.990;2023-08-30T01:41:57;11.9;;;11;;
15500;SDS011;7852;52.228;5.990;2023-08-30T01:42:57;12.1;;;11.2;;
15500;SDS011;7852;52.228;5.990;2023-08-30T01:43:57;12.5;;;11.4;;
15500;SDS011;7852;52.228;5.990;2023-08-30T01:44:58;11.9;;;11;;
15500;SDS011;7852;52.228;5.990;2023-08-30T01:45:57;12.3;;;11.3;;
15500;SDS011;7852;52.228;5.990;2023-08-30T01:46:57;11.5;;;10.5;;
15500;SDS011;7852;52.228;5.990;2023-08-30T01:47:57;11.8;;;10.9;;
15500;SDS011;7852;52.228;5.990;2023-08-30T01:48:57;11.8;;;10.9;;
15500;SDS011;7852;52.228;5.990;2023-08-30T01:49:57;11.8;;;10.9;;
15500;SDS011;7852;52.228;5.990;2023-08-30T01:50:57;12.2;;;11.3;;
15500;SDS011;7852;52.228;5.990;2023-08-30T01:51:57;13.4;;;12.4;;
15500;SDS011;7852;52.228;5.990;2023-08-30T01:52:57;12.7;;;11.9;;
15500;SDS011;7852;52.228;5.990;2023-08-30T01:53:57;12;;;11;;
15500;SDS011;7852;52.228;5.990;2023-08-30T01:54:57;12.2;;;11.2;;
15500;SDS011;7852;52.228;5.990;2023-08-30T01:55:57;12.4;;;11.4;;
15500;SDS011;7852;52.228;5.990;2023-08-30T01:56:57;13.1;;;12.2;;
15500;SDS011;7852;52.228;5.990;2023-08-30T01:57:57;12.3;;;11.4;;
15500;SDS011;7852;52.228;5.990;2023-08-30T01:58:57;12.2;;;11.3;;
15500;SDS011;7852;52.228;5.990;2023-08-30T01:59:57;11.6;;;10.8;;
15500;SDS011;7852;52.228;5.990;2023-08-30T02:00:57;11.1;;;10.3;;
15500;SDS011;7852;52.228;5.990;2023-08-30T02:01:57;11.2;;;10.2;;
15500;SDS011;7852;52.228;5.990;2023-08-30T02:02:57;11.8;;;10.9;;
15500;SDS011;7852;52.228;5.990;2023-08-30T02:03:57;12.3;;;11.2;;
15500;SDS011;7852;52.228;5.990;2023-08-30T02:04:57;11.2;;;10.1;;
15500;SDS011;7852;52.228;5.990;2023-08-30T02:05:59;11.4;;;10.5;;
15500;SDS011;7852;52.228;5.990;2023-08-30T02:06:59;11.4;;;10.5;;
15500;SDS011;7852;52.228;5.990;2023-08-30T02:07:58;11.8;;;10.8;;
15500;SDS011;7852;52.228;5.990;2023-08-30T02:08:58;11.9;;;10.9;;
15500;SDS011;7852;52.228;5.990;2023-08-30T02:09:57;12;;;11;;
15500;SDS011;7852;52.228;5.990;2023-08-30T02:10:59;11.3;;;10.4;;
15500;SDS011;7852;52.228;5.990;2023-08-30T02:11:57;12.6;;;11.6;;
15500;SDS011;7852;52.228;5.990;2023-08-30T02:12:57;12.8;;;11.7;;
15500;SDS011;7852;52.228;5.990;2023-08-30T02:13:58;12.5;;;11.3;;
15500;SDS011;7852;52.228;5.990;2023-08-30T02:14:57;11.5;;;10.6;;
15500;SDS011;7852;52.228;5.990;2023-08-30T02:15:58;12.5;;;11.5;;
15500;SDS011;7852;52.228;5.990;2023-08-30T02:16:57;12.1;;;11.1;;
15500;SDS011;7852;52.228;5.990;2023-08-30T02:17:57;12.3;;;11.3;;
15500;SDS011;7852;52.228;5.990;2023-08-30T02:18:57;12.4;;;11.3;;
15500;SDS011;7852;52.228;5.990;2023-08-30T02:19:57;12.8;;;11.8;;
15500;SDS011;7852;52.228;5.990;2023-08-30T02:20:57;12.9;;;11.8;;
15500;SDS011;7852;52.228;5.990;2023-08-30T02:21:57;12.4;;;11.4;;
15500;SDS011;7852;52.228;5.990;2023-08-30T02:22:58;12.4;;;11.4;;
15500;SDS011;7852;52.228;5.990;2023-08-30T02:23:57;13.1;;;12.1;;
15500;SDS011;7852;52.228;5.990;2023-08-30T02:24:57;13.7;;;12.6;;
15500;SDS011;7852;52.228;5.990;2023-08-30T02:25:57;13.1;;;11.9;;
15500;SDS011;7852;52.228;5.990;2023-08-30T02:26:57;12.1;;;11.2;;
15500;SDS011;7852;52.228;5.990;2023-08-30T02:27:57;12.4;;;11.4;;
15500;SDS011;7852;52.228;5.990;2023-08-30T02:28:57;12.7;;;11.6;;
15500;SDS011;7852;52.228;5.990;2023-08-30T02:29:57;13.3;;;11.9;;
15500;SDS011;7852;52.228;5.990;2023-08-30T02:30:57;12.9;;;11.8;;
15500;SDS011;7852;52.228;5.990;2023-08-30T02:31:57;13;;;11.7;;
15500;SDS011;7852;52.228;5.990;2023-08-30T02:32:57;13.3;;;12.1;;
15500;SDS011;7852;52.228;5.990;2023-08-30T02:33:57;12.8;;;11.5;;
15500;SDS011;7852;52.228;5.990;2023-08-30T02:34:57;13.5;;;12.5;;
15500;SDS011;7852;52.228;5.990;2023-08-30T02:35:57;12.9;;;11.8;;
15500;SDS011;7852;52.228;5.990;2023-08-30T02:36:57;12.7;;;11.7;;
15500;SDS011;7852;52.228;5.990;2023-08-30T02:37:57;13.3;;;12.4;;
15500;SDS011;7852;52.228;5.990;2023-08-30T02:38:57;13.6;;;12.5;;
15500;SDS011;7852;52.228;5.990;2023-08-30T02:39:57;11.9;;;10.9;;
15500;SDS011;7852;52.228;5.990;2023-08-30T02:40:57;12;;;11;;
15500;SDS011;7852;52.228;5.990;2023-08-30T02:41:57;12.9;;;11.7;;
15500;SDS011;7852;52.228;5.990;2023-08-30T02:42:57;13.8;;;12.6;;
15500;SDS011;7852;52.228;5.990;2023-08-30T02:43:57;12.8;;;11.7;;
15500;SDS011;7852;52.228;5.990;2023-08-30T02:44:57;11.8;;;10.9;;
15500;SDS011;7852;52.228;5.990;2023-08-30T02:45:57;12.6;;;11.6;;
15500;SDS011;7852;52.228;5.990;2023-08-30T02:46:57;12.8;;;11.7;;
15500;SDS011;7852;52.228;5.990;2023-08-30T02:47:57;13.5;;;12.3;;
15500;SDS011;7852;52.228;5.990;2023-08-30T02:48:57;13.8;;;12.6;;
15500;SDS011;7852;52.228;5.990;2023-08-30T02:49:57;13.9;;;12.8;;
15500;SDS011;7852;52.228;5.990;2023-08-30T02:50:57;12.9;;;11.8;;
15500;SDS011;7852;52.228;5.990;2023-08-30T02:51:57;12.9;;;11.8;;
15500;SDS011;7852;52.228;5.990;2023-08-30T02:52:57;13.1;;;11.7;;
15500;SDS011;7852;52.228;5.990;2023-08-30T02:53:57;13;;;11.9;;
15500;SDS011;7852;52.228;5.990;2023-08-30T02:54:57;13.3;;;12.1;;
15500;SDS011;7852;52.228;5.990;2023-08-30T02:55:57;12.5;;;11.4;;
15500;SDS011;7852;52.228;5.990;2023-08-30T02:56:57;12.6;;;11.5;;
15500;SDS011;7852;52.228;5.990;2023-08-30T02:57:57;12;;;11;;
15500;SDS011;7852;52.228;5.990;2023-08-30T02:58:57;12.3;;;11.3;;
15500;SDS011;7852;52.228;5.990;2023-08-30T02:59:57;12.3;;;11.2;;
15500;SDS011;7852;52.228;5.990;2023-08-30T03:00:57;13.1;;;12.1;;
15500;SDS011;7852;52.228;5.990;2023-08-30T03:01:57;12.4;;;11.3;;
15500;SDS011;7852;52.228;5.990;2023-08-30T03:02:57;13.9;;;12.7;;
15500;SDS011;7852;52.228;5.990;2023-08-30T03:03:57;13.3;;;12.1;;
15500;SDS011;7852;52.228;5.990;2023-08-30T03:04:57;12.9;;;11.7;;
15500;SDS011;7852;52.228;5.990;2023-08-30T03:05:57;12.1;;;11.1;;
15500;SDS011;7852;52.228;5.990;2023-08-30T03:06:57;12.6;;;11.6;;
15500;SDS011;7852;52.228;5.990;2023-08-30T03:07:57;13.6;;;12.4;;
15500;SDS011;7852;52.228;5.990;2023-08-30T03:08:57;13.4;;;12.2;;
15500;SDS011;7852;52.228;5.990;2023-08-30T03:09:57;13.3;;;12.1;;
15500;SDS011;7852;52.228;5.990;2023-08-30T03:11:06;13;;;11.8;;
15500;SDS011;7852;52.228;5.990;2023-08-30T03:11:57;13;;;11.9;;
15500;SDS011;7852;52.228;5.990;2023-08-30T03:12:57;13;;;11.9;;
15500;SDS011;7852;52.228;5.990;2023-08-30T03:13:57;13.3;;;12;;
15500;SDS011;7852;52.228;5.990;2023-08-30T03:14:57;13.2;;;11.9;;
15500;SDS011;7852;52.228;5.990;2023-08-30T03:15:57;13.6;;;12.4;;
15500;SDS011;7852;52.228;5.990;2023-08-30T03:16:57;12.5;;;11.4;;
15500;SDS011;7852;52.228;5.990;2023-08-30T03:17:57;13;;;11.8;;
15500;SDS011;7852;52.228;5.990;2023-08-30T03:18:57;12.8;;;11.7;;
15500;SDS011;7852;52.228;5.990;2023-08-30T03:19:57;13.4;;;12;;
15500;SDS011;7852;52.228;5.990;2023-08-30T03:20:59;13.5;;;12.2;;
15500;SDS011;7852;52.228;5.990;2023-08-30T03:21:57;13.3;;;12;;
15500;SDS011;7852;52.228;5.990;2023-08-30T03:22:57;14.3;;;12.9;;
15500;SDS011;7852;52.228;5.990;2023-08-30T03:23:57;13.5;;;12.3;;
15500;SDS011;7852;52.228;5.990;2023-08-30T03:24:57;13.4;;;12.1;;
15500;SDS011;7852;52.228;5.990;2023-08-30T03:25:57;13.2;;;11.9;;
15500;SDS011;7852;52.228;5.990;2023-08-30T03:26:57;13.2;;;12;;
15500;SDS011;7852;52.228;5.990;2023-08-30T03:27:57;13.3;;;12;;
15500;SDS011;7852;52.228;5.990;2023-08-30T03:28:57;14.4;;;12.5;;
15500;SDS011;7852;52.228;5.990;2023-08-30T03:29:57;13.8;;;12.4;;
15500;SDS011;7852;52.228;5.990;2023-08-30T03:30:57;13.8;;;12.4;;
15500;SDS011;7852;52.228;5.990;2023-08-30T03:31:57;13.4;;;12.2;;
15500;SDS011;7852;52.228;5.990;2023-08-30T03:32:57;14.3;;;13;;
15500;SDS011;7852;52.228;5.990;2023-08-30T03:33:57;13.1;;;12;;
15500;SDS011;7852;52.228;5.990;2023-08-30T03:34:57;15.5;;;14;;
15500;SDS011;7852;52.228;5.990;2023-08-30T03:35:58;13.4;;;12.1;;
15500;SDS011;7852;52.228;5.990;2023-08-30T03:36:57;13.3;;;12.1;;
15500;SDS011;7852;52.228;5.990;2023-08-30T03:37:57;12.7;;;11.6;;
15500;SDS011;7852;52.228;5.990;2023-08-30T03:38:57;13.2;;;12;;
15500;SDS011;7852;52.228;5.990;2023-08-30T03:39:57;13.3;;;11.8;;
15500;SDS011;7852;52.228;5.990;2023-08-30T03:40:57;13.2;;;11.9;;
15500;SDS011;7852;52.228;5.990;2023-08-30T03:41:57;12.9;;;11.6;;
15500;SDS011;7852;52.228;5.990;2023-08-30T03:42:57;13.1;;;11.8;;
15500;SDS011;7852;52.228;5.990;2023-08-30T03:43:57;13;;;11.8;;
15500;SDS011;7852;52.228;5.990;2023-08-30T03:44:57;13.1;;;11.8;;
15500;SDS011;7852;52.228;5.990;2023-08-30T03:45:57;12.7;;;11.5;;
15500;SDS011;7852;52.228;5.990;2023-08-30T03:46:57;13.3;;;11.9;;
15500;SDS011;7852;52.228;5.990;2023-08-30T03:47:57;12.6;;;11.4;;
15500;SDS011;7852;52.228;5.990;2023-08-30T03:48:57;13.4;;;12.1;;
15500;SDS011;7852;52.228;5.990;2023-08-30T03:49:57;13.5;;;12.2;;
15500;SDS011;7852;52.228;5.990;2023-08-30T03:50:57;12.6;;;11.5;;
15500;SDS011;7852;52.228;5.990;2023-08-30T03:51:57;12.7;;;11.3;;
15500;SDS011;7852;52.228;5.990;2023-08-30T03:52:57;12.4;;;11.1;;
15500;SDS011;7852;52.228;5.990;2023-08-30T03:53:57;12.3;;;11.1;;
15500;SDS011;7852;52.228;5.990;2023-08-30T03:54:57;12.8;;;11.5;;
15500;SDS011;7852;52.228;5.990;2023-08-30T03:55:57;12.4;;;11.1;;
15500;SDS011;7852;52.228;5.990;2023-08-30T03:56:57;12.3;;;11.1;;
15500;SDS011;7852;52.228;5.990;2023-08-30T03:57:57;13.4;;;12.1;;
15500;SDS011;7852;52.228;5.990;2023-08-30T03:58:57;12.3;;;11.3;;
15500;SDS011;7852;52.228;5.990;2023-08-30T03:59:57;12.5;;;11.3;;
15500;SDS011;7852;52.228;5.990;2023-08-30T04:00:57;13.5;;;12.2;;
15500;SDS011;7852;52.228;5.990;2023-08-30T04:01:57;13.2;;;11.9;;
15500;SDS011;7852;52.228;5.990;2023-08-30T04:02:57;13.3;;;12.1;;
15500;SDS011;7852;52.228;5.990;2023-08-30T04:03:57;13;;;11.6;;
15500;SDS011;7852;52.228;5.990;2023-08-30T04:04:57;13.4;;;12.2;;
15500;SDS011;7852;52.228;5.990;2023-08-30T04:05:57;13.1;;;12;;
15500;SDS011;7852;52.228;5.990;2023-08-30T04:06:57;13.7;;;12.3;;
15500;SDS011;7852;52.228;5.990;2023-08-30T04:07:57;13.5;;;12.3;;
15500;SDS011;7852;52.228;5.990;2023-08-30T04:08:57;12.8;;;11.5;;
15500;SDS011;7852;52.228;5.990;2023-08-30T04:09:57;13.5;;;12.3;;
15500;SDS011;7852;52.228;5.990;2023-08-30T04:10:57;12.8;;;11.6;;
15500;SDS011;7852;52.228;5.990;2023-08-30T04:11:57;12.7;;;11.5;;
15500;SDS011;7852;52.228;5.990;2023-08-30T04:12:57;13;;;11.8;;
15500;SDS011;7852;52.228;5.990;2023-08-30T04:13:57;13.7;;;12.4;;
15500;SDS011;7852;52.228;5.990;2023-08-30T04:14:57;13.7;;;12.3;;
15500;SDS011;7852;52.228;5.990;2023-08-30T04:15:57;12.3;;;11.2;;
15500;SDS011;7852;52.228;5.990;2023-08-30T04:16:57;13.4;;;12.1;;
15500;SDS011;7852;52.228;5.990;2023-08-30T04:17:57;13.5;;;12.2;;
15500;SDS011;7852;52.228;5.990;2023-08-30T04:18:57;13.5;;;12.2;;
15500;SDS011;7852;52.228;5.990;2023-08-30T04:19:57;13.9;;;12.6;;
15500;SDS011;7852;52.228;5.990;2023-08-30T04:20:57;13.9;;;12.6;;
15500;SDS011;7852;52.228;5.990;2023-08-30T04:21:57;16.8;;;15.3;;
15500;SDS011;7852;52.228;5.990;2023-08-30T04:22:57;16.1;;;14.7;;
15500;SDS011;7852;52.228;5.990;2023-08-30T04:23:57;16.9;;;15.5;;
15500;SDS011;7852;52.228;5.990;2023-08-30T04:24:57;20.3;;;18.8;;
15500;SDS011;7852;52.228;5.990;2023-08-30T04:25:57;18.2;;;16.8;;
15500;SDS011;7852;52.228;5.990;2023-08-30T04:26:57;18.5;;;17.2;;
15500;SDS011;7852;52.228;5.990;2023-08-30T04:27:57;17.6;;;16.1;;
15500;SDS011;7852;52.228;5.990;2023-08-30T04:28:57;20.4;;;19;;
15500;SDS011;7852;52.228;5.990;2023-08-30T04:29:57;18.7;;;17.3;;
15500;SDS011;7852;52.228;5.990;2023-08-30T04:30:57;17.7;;;16.3;;
15500;SDS011;7852;52.228;5.990;2023-08-30T04:31:57;16.1;;;14.8;;
15500;SDS011;7852;52.228;5.990;2023-08-30T04:32:57;16.3;;;15;;
15500;SDS011;7852;52.228;5.990;2023-08-30T04:33:57;14.8;;;13.5;;
15500;SDS011;7852;52.228;5.990;2023-08-30T04:34:57;17.7;;;16.2;;
15500;SDS011;7852;52.228;5.990;2023-08-30T04:35:57;18;;;16.7;;
15500;SDS011;7852;52.228;5.990;2023-08-30T04:36:57;19.2;;;17.7;;
15500;SDS011;7852;52.228;5.990;2023-08-30T04:37:57;15.4;;;14;;
15500;SDS011;7852;52.228;5.990;2023-08-30T04:38:57;16.1;;;14.7;;
15500;SDS011;7852;52.228;5.990;2023-08-30T04:39:57;13.4;;;12.1;;
15500;SDS011;7852;52.228;5.990;2023-08-30T04:40:57;16.2;;;14.7;;
15500;SDS011;7852;52.228;5.990;2023-08-30T04:41:57;15.7;;;14.4;;
15500;SDS011;7852;52.228;5.990;2023-08-30T04:42:58;16.4;;;15;;
15500;SDS011;7852;52.228;5.990;2023-08-30T04:43:57;14.2;;;13;;
15500;SDS011;7852;52.228;5.990;2023-08-30T04:44:57;16.3;;;14.8;;
15500;SDS011;7852;52.228;5.990;2023-08-30T04:45:57;17.1;;;15.8;;
15500;SDS011;7852;52.228;5.990;2023-08-30T04:46:57;20.1;;;18.7;;
15500;SDS011;7852;52.228;5.990;2023-08-30T04:47:57;17.6;;;16.1;;
15500;SDS011;7852;52.228;5.990;2023-08-30T04:48:57;16.3;;;15;;
15500;SDS011;7852;52.228;5.990;2023-08-30T04:49:57;17;;;15.6;;
15500;SDS011;7852;52.228;5.990;2023-08-30T04:50:58;17.4;;;16;;
15500;SDS011;7852;52.228;5.990;2023-08-30T04:51:57;15.6;;;14.4;;
15500;SDS011;7852;52.228;5.990;2023-08-30T04:52:57;16.8;;;15.5;;
15500;SDS011;7852;52.228;5.990;2023-08-30T04:53:57;15.7;;;14.4;;
15500;SDS011;7852;52.228;5.990;2023-08-30T04:54:58;17.5;;;16;;
15500;SDS011;7852;52.228;5.990;2023-08-30T04:55:57;17.9;;;16.4;;
15500;SDS011;7852;52.228;5.990;2023-08-30T04:56:57;18.5;;;17;;
15500;SDS011;7852;52.228;5.990;2023-08-30T04:57:57;17.7;;;16.3;;
15500;SDS011;7852;52.228;5.990;2023-08-30T04:58:57;18;;;16.6;;
15500;SDS011;7852;52.228;5.990;2023-08-30T04:59:57;16.8;;;15.4;;
15500;SDS011;7852;52.228;5.990;2023-08-30T05:00:57;17.2;;;15.9;;
15500;SDS011;7852;52.228;5.990;2023-08-30T05:01:57;17.2;;;15.9;;
15500;SDS011;7852;52.228;5.990;2023-08-30T05:02:57;14.6;;;13.3;;
15500;SDS011;7852;52.228;5.990;2023-08-30T05:03:57;14.3;;;13.1;;
15500;SDS011;7852;52.228;5.990;2023-08-30T05:04:58;13.7;;;12.5;;
15500;SDS011;7852;52.228;5.990;2023-08-30T05:05:57;15.3;;;13.9;;
15500;SDS011;7852;52.228;5.990;2023-08-30T05:06:57;15.8;;;14.6;;
15500;SDS011;7852;52.228;5.990;2023-08-30T05:07:57;13.9;;;12.5;;
15500;SDS011;7852;52.228;5.990;2023-08-30T05:08:57;13.8;;;12.6;;
15500;SDS011;7852;52.228;5.990;2023-08-30T05:09:57;14.5;;;13;;
15500;SDS011;7852;52.228;5.990;2023-08-30T05:10:57;16.9;;;15.5;;
15500;SDS011;7852;52.228;5.990;2023-08-30T05:11:57;15.8;;;14.4;;
15500;SDS011;7852;52.228;5.990;2023-08-30T05:12:57;14.1;;;12.9;;
15500;SDS011;7852;52.228;5.990;2023-08-30T05:13:57;14.8;;;13.4;;
15500;SDS011;7852;52.228;5.990;2023-08-30T05:14:57;14.4;;;13;;
15500;SDS011;7852;52.228;5.990;2023-08-30T05:15:57;15.9;;;14.4;;
15500;SDS011;7852;52.228;5.990;2023-08-30T05:16:57;16.5;;;15.1;;
15500;SDS011;7852;52.228;5.990;2023-08-30T05:17:57;14.9;;;13.5;;
15500;SDS011;7852;52.228;5.990;2023-08-30T05:18:57;14.5;;;13.2;;
15500;SDS011;7852;52.228;5.990;2023-08-30T05:19:57;15.1;;;13.8;;
15500;SDS011;7852;52.228;5.990;2023-08-30T05:20:57;14.8;;;13.5;;
15500;SDS011;7852;52.228;5.990;2023-08-30T05:21:57;14.2;;;12.8;;
15500;SDS011;7852;52.228;5.990;2023-08-30T05:22:57;16.1;;;14.8;;
15500;SDS011;7852;52.228;5.990;2023-08-30T05:23:57;16.6;;;15;;
15500;SDS011;7852;52.228;5.990;2023-08-30T05:24:57;16.6;;;15;;
15500;SDS011;7852;52.228;5.990;2023-08-30T05:25:57;16.3;;;14.7;;
15500;SDS011;7852;52.228;5.990;2023-08-30T05:26:57;17.3;;;15.8;;
15500;SDS011;7852;52.228;5.990;2023-08-30T05:27:57;16.5;;;15.1;;
15500;SDS011;7852;52.228;5.990;2023-08-30T05:28:57;14.8;;;13.5;;
15500;SDS011;7852;52.228;5.990;2023-08-30T05:29:57;13.6;;;12.3;;
15500;SDS011;7852;52.228;5.990;2023-08-30T05:30:57;13.7;;;12.3;;
15500;SDS011;7852;52.228;5.990;2023-08-30T05:31:57;13.5;;;12.2;;
15500;SDS011;7852;52.228;5.990;2023-08-30T05:32:57;14;;;12.7;;
15500;SDS011;7852;52.228;5.990;2023-08-30T05:33:57;14.7;;;12.9;;
15500;SDS011;7852;52.228;5.990;2023-08-30T05:34:58;13.1;;;11.9;;
15500;SDS011;7852;52.228;5.990;2023-08-30T05:35:57;15;;;13.7;;
15500;SDS011;7852;52.228;5.990;2023-08-30T05:36:57;14;;;12.6;;
15500;SDS011;7852;52.228;5.990;2023-08-30T05:37:57;14.1;;;12.7;;
15500;SDS011;7852;52.228;5.990;2023-08-30T05:38:57;12.8;;;11.7;;
15500;SDS011;7852;52.228;5.990;2023-08-30T05:39:57;13.3;;;12;;
15500;SDS011;7852;52.228;5.990;2023-08-30T05:40:57;14.7;;;13;;
15500;SDS011;7852;52.228;5.990;2023-08-30T05:41:57;13.1;;;11.8;;
15500;SDS011;7852;52.228;5.990;2023-08-30T05:42:57;14.8;;;12.9;;
15500;SDS011;7852;52.228;5.990;2023-08-30T05:43:57;13.1;;;11.9;;
15500;SDS011;7852;52.228;5.990;2023-08-30T05:44:57;13.1;;;11.8;;
15500;SDS011;7852;52.228;5.990;2023-08-30T05:45:57;14.4;;;13;;
15500;SDS011;7852;52.228;5.990;2023-08-30T05:46:57;13.9;;;12.5;;
15500;SDS011;7852;52.228;5.990;2023-08-30T05:47:57;14;;;12.7;;
15500;SDS011;7852;52.228;5.990;2023-08-30T05:48:57;13;;;11.8;;
15500;SDS011;7852;52.228;5.990;2023-08-30T05:49:57;13.4;;;12.1;;
15500;SDS011;7852;52.228;5.990;2023-08-30T05:50:57;14.2;;;12.8;;
15500;SDS011;7852;52.228;5.990;2023-08-30T05:51:57;14.2;;;12.5;;
15500;SDS011;7852;52.228;5.990;2023-08-30T05:52:57;13.2;;;11.9;;
15500;SDS011;7852;52.228;5.990;2023-08-30T05:53:57;13.5;;;12.1;;
15500;SDS011;7852;52.228;5.990;2023-08-30T05:54:57;13.7;;;12.4;;
15500;SDS011;7852;52.228;5.990;2023-08-30T05:55:57;13.8;;;12.5;;
15500;SDS011;7852;52.228;5.990;2023-08-30T05:56:57;14.1;;;12.8;;
15500;SDS011;7852;52.228;5.990;2023-08-30T05:57:57;14.3;;;13;;
15500;SDS011;7852;52.228;5.990;2023-08-30T05:58:57;13.5;;;12.2;;
15500;SDS011;7852;52.228;5.990;2023-08-30T05:59:57;13.7;;;12.3;;
15500;SDS011;7852;52.228;5.990;2023-08-30T06:00:57;14;;;12.6;;
15500;SDS011;7852;52.228;5.990;2023-08-30T06:01:57;15.1;;;13.5;;
15500;SDS011;7852;52.228;5.990;2023-08-30T06:02:57;14.4;;;13.1;;
15500;SDS011;7852;52.228;5.990;2023-08-30T06:03:57;15.6;;;13.2;;
15500;SDS011;7852;52.228;5.990;2023-08-30T06:04:57;14.8;;;13.5;;
15500;SDS011;7852;52.228;5.990;2023-08-30T06:05:57;14.5;;;13.2;;
15500;SDS011;7852;52.228;5.990;2023-08-30T06:06:57;14.4;;;13;;
15500;SDS011;7852;52.228;5.990;2023-08-30T06:07:57;13.8;;;12.5;;
15500;SDS011;7852;52.228;5.990;2023-08-30T06:08:57;14.5;;;13;;
15500;SDS011;7852;52.228;5.990;2023-08-30T06:09:57;13.4;;;12.2;;